sensor_id;sensor_type;location;lat;lon;timestamp;pressure;altitude;pressure_sealevel;temperature;humidity
25560;BME280;13450;49.374;8.584;2023-02-11T00:00:15;102663.84;;;-1.95;100.00
25560;BME280;13450;49.374;8.584;2023-02-11T00:02:41;102660.41;;;-1.98;100.00
25560;BME280;13450;49.374;8.584;2023-02-11T00:05:09;102656.03;;;-1.99;100.00
25560;BME280;13450;49.374;8.584;2023-02-11T00:07:38;102656.97;;;-2.00;100.00
25560;BME280;13450;49.374;8.584;2023-02-11T00:10:09;102661.28;;;-1.99;100.00
25560;BME280;13450;49.374;8.584;2023-02-11T00:12:35;102656.88;;;-1.97;100.00
25560;BME280;13450;49.374;8.584;2023-02-11T00:15:02;102650.53;;;-1.89;100.00
25560;BME280;13450;49.374;8.584;2023-02-11T00:20:08;102651.03;;;-1.78;100.00
25560;BME280;13450;49.374;8.584;2023-02-11T00:23:07;102648.31;;;-1.75;100.00
25560;BME280;13450;49.374;8.584;2023-02-11T00:25:38;102651.66;;;-1.69;100.00
25560;BME280;13450;49.374;8.584;2023-02-11T00:28:03;102648.16;;;-1.70;100.00
25560;BME280;13450;49.374;8.584;2023-02-11T00:30:28;102636.81;;;-1.71;100.00
25560;BME280;13450;49.374;8.584;2023-02-11T00:32:54;102632.44;;;-1.72;100.00
25560;BME280;13450;49.374;8.584;2023-02-11T00:35:24;102637.66;;;-1.70;100.00
25560;BME280;13450;49.374;8.584;2023-02-11T00:38:00;102640.31;;;-1.72;100.00
25560;BME280;13450;49.374;8.584;2023-02-11T00:49:01;102645.06;;;-1.56;100.00
25560;BME280;13450;49.374;8.584;2023-02-11T00:54:07;102642.09;;;-1.45;100.00
25560;BME280;13450;49.374;8.584;2023-02-11T00:56:35;102633.19;;;-1.41;100.00
25560;BME280;13450;49.374;8.584;2023-02-11T00:59:03;102629.56;;;-1.37;100.00
25560;BME280;13450;49.374;8.584;2023-02-11T01:01:28;102634.69;;;-1.34;100.00
25560;BME280;13450;49.374;8.584;2023-02-11T01:03:54;102631.16;;;-1.33;100.00
25560;BME280;13450;49.374;8.584;2023-02-11T01:06:19;102628.53;;;-1.33;100.00
25560;BME280;13450;49.374;8.584;2023-02-11T01:08:44;102629.44;;;-1.34;100.00
25560;BME280;13450;49.374;8.584;2023-02-11T01:11:15;102623.38;;;-1.36;100.00
25560;BME280;13450;49.374;8.584;2023-02-11T01:13:42;102618.16;;;-1.37;100.00
25560;BME280;13450;49.374;8.584;2023-02-11T01:18:43;102620.00;;;-1.39;100.00
25560;BME280;13450;49.374;8.584;2023-02-11T01:21:08;102618.16;;;-1.37;100.00
25560;BME280;13450;49.374;8.584;2023-02-11T01:23:34;102624.25;;;-1.35;100.00
25560;BME280;13450;49.374;8.584;2023-02-11T01:25:59;102625.03;;;-1.33;100.00
25560;BME280;13450;49.374;8.584;2023-02-11T01:30:54;102622.19;;;-1.27;100.00
25560;BME280;13450;49.374;8.584;2023-02-11T01:33:20;102621.28;;;-1.26;100.00
25560;BME280;13450;49.374;8.584;2023-02-11T01:35:46;102621.28;;;-1.26;100.00
25560;BME280;13450;49.374;8.584;2023-02-11T01:38:24;102617.75;;;-1.25;100.00
25560;BME280;13450;49.374;8.584;2023-02-11T01:40:53;102617.75;;;-1.25;100.00
25560;BME280;13450;49.374;8.584;2023-02-11T01:46:05;102612.53;;;-1.26;100.00
25560;BME280;13450;49.374;8.584;2023-02-11T01:48:38;102610.78;;;-1.26;100.00
25560;BME280;13450;49.374;8.584;2023-02-11T01:51:13;102614.31;;;-1.27;100.00
25560;BME280;13450;49.374;8.584;2023-02-11T01:53:43;102608.16;;;-1.26;100.00
25560;BME280;13450;49.374;8.584;2023-02-11T01:59:07;102601.94;;;-1.23;100.00
25560;BME280;13450;49.374;8.584;2023-02-11T02:07:40;102596.50;;;-1.19;100.00
25560;BME280;13450;49.374;8.584;2023-02-11T02:12:43;102569.38;;;-1.19;100.00
25560;BME280;13450;49.374;8.584;2023-02-11T02:15:34;102574.63;;;-1.19;100.00
25560;BME280;13450;49.374;8.584;2023-02-11T02:21:08;102565.09;;;-1.22;100.00
25560;BME280;13450;49.374;8.584;2023-02-11T02:32:32;102566.03;;;-1.24;100.00
25560;BME280;13450;49.374;8.584;2023-02-11T02:40:19;102542.56;;;-1.29;100.00
25560;BME280;13450;49.374;8.584;2023-02-11T02:42:46;102539.00;;;-1.28;100.00
25560;BME280;13450;49.374;8.584;2023-02-11T02:45:12;102542.56;;;-1.29;100.00
25560;BME280;13450;49.374;8.584;2023-02-11T02:47:38;102523.34;;;-1.31;100.00
25560;BME280;13450;49.374;8.584;2023-02-11T02:50:04;102526.91;;;-1.32;100.00
25560;BME280;13450;49.374;8.584;2023-02-11T03:00:56;102521.63;;;-1.32;100.00
25560;BME280;13450;49.374;8.584;2023-02-11T03:03:43;102524.97;;;-1.27;100.00
25560;BME280;13450;49.374;8.584;2023-02-11T03:11:51;102535.25;;;-1.21;100.00
25560;BME280;13450;49.374;8.584;2023-02-11T03:14:18;102536.97;;;-1.20;100.00
25560;BME280;13450;49.374;8.584;2023-02-11T03:16:47;102532.63;;;-1.21;100.00
25560;BME280;13450;49.374;8.584;2023-02-11T03:19:17;102541.34;;;-1.20;100.00
25560;BME280;13450;49.374;8.584;2023-02-11T03:25:01;102530.97;;;-1.23;100.00
25560;BME280;13450;49.374;8.584;2023-02-11T03:30:37;102541.50;;;-1.23;100.00
25560;BME280;13450;49.374;8.584;2023-02-11T03:33:17;102530.97;;;-1.23;100.00
25560;BME280;13450;49.374;8.584;2023-02-11T03:35:55;102542.31;;;-1.23;100.00
25560;BME280;13450;49.374;8.584;2023-02-11T03:38:32;102550.09;;;-1.20;100.00
25560;BME280;13450;49.374;8.584;2023-02-11T03:41:04;102558.00;;;-1.20;100.00
25560;BME280;13450;49.374;8.584;2023-02-11T03:54:13;102519.81;;;-1.06;100.00
25560;BME280;13450;49.374;8.584;2023-02-11T03:56:55;102525.97;;;-1.06;100.00
25560;BME280;13450;49.374;8.584;2023-02-11T04:12:17;102527.94;;;-1.12;100.00
25560;BME280;13450;49.374;8.584;2023-02-11T04:29:44;102495.91;;;-1.00;100.00
25560;BME280;13450;49.374;8.584;2023-02-11T04:32:10;102494.91;;;-0.96;100.00
25560;BME280;13450;49.374;8.584;2023-02-11T04:34:36;102485.06;;;-0.90;100.00
25560;BME280;13450;49.374;8.584;2023-02-11T04:37:01;102483.22;;;-0.88;100.00
25560;BME280;13450;49.374;8.584;2023-02-11T04:39:27;102490.09;;;-0.84;100.00
25560;BME280;13450;49.374;8.584;2023-02-11T04:41:52;102485.56;;;-0.81;100.00
25560;BME280;13450;49.374;8.584;2023-02-11T04:44:18;102480.28;;;-0.81;100.00
25560;BME280;13450;49.374;8.584;2023-02-11T05:07:24;102467.34;;;-0.85;100.00
25560;BME280;13450;49.374;8.584;2023-02-11T05:12:26;102472.81;;;-0.92;100.00
25560;BME280;13450;49.374;8.584;2023-02-11T05:25:13;102508.78;;;-1.16;100.00
25560;BME280;13450;49.374;8.584;2023-02-11T05:27:40;102513.38;;;-1.21;100.00
25560;BME280;13450;49.374;8.584;2023-02-11T05:30:06;102509.09;;;-1.24;100.00
25560;BME280;13450;49.374;8.584;2023-02-11T05:32:32;102504.81;;;-1.26;100.00
25560;BME280;13450;49.374;8.584;2023-02-11T05:34:57;102511.06;;;-1.30;100.00
25560;BME280;13450;49.374;8.584;2023-02-11T05:37:22;102516.38;;;-1.32;100.00
25560;BME280;13450;49.374;8.584;2023-02-11T05:39:49;102525.19;;;-1.33;100.00
25560;BME280;13450;49.374;8.584;2023-02-11T05:42:15;102520.84;;;-1.34;100.00
25560;BME280;13450;49.374;8.584;2023-02-11T05:44:43;102520.03;;;-1.36;100.00
25560;BME280;13450;49.374;8.584;2023-02-11T05:47:08;102488.66;;;-1.39;100.00
25560;BME280;13450;49.374;8.584;2023-02-11T05:57:19;102490.00;;;-1.53;100.00
25560;BME280;13450;49.374;8.584;2023-02-11T05:59:45;102502.25;;;-1.53;100.00
25560;BME280;13450;49.374;8.584;2023-02-11T06:02:10;102503.25;;;-1.56;100.00
25560;BME280;13450;49.374;8.584;2023-02-11T06:04:39;102508.50;;;-1.56;100.00
25560;BME280;13450;49.374;8.584;2023-02-11T06:09:39;102501.31;;;-1.51;100.00
25560;BME280;13450;49.374;8.584;2023-02-11T06:12:05;102495.13;;;-1.50;100.00
25560;BME280;13450;49.374;8.584;2023-02-11T06:14:34;102483.66;;;-1.47;100.00
25560;BME280;13450;49.374;8.584;2023-02-11T06:22:08;102486.81;;;-1.37;100.00
25560;BME280;13450;49.374;8.584;2023-02-11T06:24:33;102484.91;;;-1.34;100.00
25560;BME280;13450;49.374;8.584;2023-02-11T06:26:58;102479.59;;;-1.32;100.00
25560;BME280;13450;49.374;8.584;2023-02-11T06:29:24;102480.41;;;-1.30;100.00
25560;BME280;13450;49.374;8.584;2023-02-11T06:31:52;102471.56;;;-1.27;100.00
25560;BME280;13450;49.374;8.584;2023-02-11T06:34:17;102470.59;;;-1.25;100.00
25560;BME280;13450;49.374;8.584;2023-02-11T06:36:43;102468.75;;;-1.23;100.00
25560;BME280;13450;49.374;8.584;2023-02-11T06:39:12;102481.00;;;-1.22;100.00
25560;BME280;13450;49.374;8.584;2023-02-11T06:41:40;102481.78;;;-1.20;100.00
25560;BME280;13450;49.374;8.584;2023-02-11T06:44:06;102485.28;;;-1.19;100.00
25560;BME280;13450;49.374;8.584;2023-02-11T06:46:32;102490.53;;;-1.19;100.00
25560;BME280;13450;49.374;8.584;2023-02-11T06:48:58;102495.84;;;-1.21;100.00
25560;BME280;13450;49.374;8.584;2023-02-11T06:51:26;102500.28;;;-1.23;100.00
25560;BME280;13450;49.374;8.584;2023-02-11T06:53:52;102510.94;;;-1.26;100.00
25560;BME280;13450;49.374;8.584;2023-02-11T06:56:22;102518.81;;;-1.26;100.00
25560;BME280;13450;49.374;8.584;2023-02-11T06:58:55;102513.59;;;-1.27;100.00
25560;BME280;13450;49.374;8.584;2023-02-11T07:01:22;102512.75;;;-1.28;100.00
25560;BME280;13450;49.374;8.584;2023-02-11T07:03:48;102512.75;;;-1.28;100.00
25560;BME280;13450;49.374;8.584;2023-02-11T07:06:17;102512.84;;;-1.31;100.00
25560;BME280;13450;49.374;8.584;2023-02-11T07:08:43;102519.94;;;-1.33;100.00
25560;BME280;13450;49.374;8.584;2023-02-11T07:11:18;102518.22;;;-1.34;100.00
25560;BME280;13450;49.374;8.584;2023-02-11T07:13:45;102514.69;;;-1.33;100.00
25560;BME280;13450;49.374;8.584;2023-02-11T07:16:13;102503.25;;;-1.32;100.00
25560;BME280;13450;49.374;8.584;2023-02-11T07:18:40;102504.16;;;-1.33;100.00
25560;BME280;13450;49.374;8.584;2023-02-11T07:21:07;102497.06;;;-1.31;100.00
25560;BME280;13450;49.374;8.584;2023-02-11T07:23:36;102505.78;;;-1.29;100.00
25560;BME280;13450;49.374;8.584;2023-02-11T07:26:13;102508.34;;;-1.27;100.00
25560;BME280;13450;49.374;8.584;2023-02-11T07:33:50;102509.13;;;-1.25;100.00
25560;BME280;13450;49.374;8.584;2023-02-11T07:36:19;102509.09;;;-1.24;100.00
25560;BME280;13450;49.374;8.584;2023-02-11T07:41:24;102508.75;;;-1.14;100.00
25560;BME280;13450;49.374;8.584;2023-02-11T07:44:04;102520.91;;;-1.12;100.00
25560;BME280;13450;49.374;8.584;2023-02-11T07:46:30;102523.38;;;-1.07;100.00
25560;BME280;13450;49.374;8.584;2023-02-11T07:48:59;102509.25;;;-1.04;100.00
25560;BME280;13450;49.374;8.584;2023-02-11T07:51:29;102513.53;;;-1.02;100.00
25560;BME280;13450;49.374;8.584;2023-02-11T07:53:56;102515.94;;;-0.96;100.00
25560;BME280;13450;49.374;8.584;2023-02-11T07:56:22;102513.06;;;-0.89;100.00
25560;BME280;13450;49.374;8.584;2023-02-11T07:58:49;102503.19;;;-0.83;100.00
25560;BME280;13450;49.374;8.584;2023-02-11T08:01:18;102503.81;;;-0.76;100.00
25560;BME280;13450;49.374;8.584;2023-02-11T08:03:46;102511.44;;;-0.70;100.00
25560;BME280;13450;49.374;8.584;2023-02-11T08:06:14;102500.59;;;-0.62;100.00
25560;BME280;13450;49.374;8.584;2023-02-11T08:08:40;102503.84;;;-0.55;100.00
25560;BME280;13450;49.374;8.584;2023-02-11T08:11:08;102510.59;;;-0.48;100.00
25560;BME280;13450;49.374;8.584;2023-02-11T08:13:34;102511.13;;;-0.40;100.00
25560;BME280;13450;49.374;8.584;2023-02-11T08:15:59;102514.97;;;-0.26;100.00
25560;BME280;13450;49.374;8.584;2023-02-11T08:18:24;102506.59;;;-0.14;100.00
25560;BME280;13450;49.374;8.584;2023-02-11T08:20:49;102512.91;;;0.03;100.00
25560;BME280;13450;49.374;8.584;2023-02-11T08:23:19;102515.00;;;0.16;100.00
25560;BME280;13450;49.374;8.584;2023-02-11T08:25:45;102520.53;;;0.30;100.00
25560;BME280;13450;49.374;8.584;2023-02-11T08:28:10;102513.03;;;0.42;100.00
25560;BME280;13450;49.374;8.584;2023-02-11T08:30:35;102506.34;;;0.54;100.00
25560;BME280;13450;49.374;8.584;2023-02-11T08:33:01;102492.53;;;0.68;100.00
25560;BME280;13450;49.374;8.584;2023-02-11T08:35:26;102492.06;;;0.78;100.00
25560;BME280;13450;49.374;8.584;2023-02-11T08:37:51;102501.97;;;0.93;100.00
25560;BME280;13450;49.374;8.584;2023-02-11T08:40:17;102506.81;;;1.02;100.00
25560;BME280;13450;49.374;8.584;2023-02-11T08:42:43;102509.66;;;1.16;100.00
25560;BME280;13450;49.374;8.584;2023-02-11T08:45:10;102510.66;;;1.33;100.00
25560;BME280;13450;49.374;8.584;2023-02-11T08:47:37;102508.19;;;1.48;100.00
25560;BME280;13450;49.374;8.584;2023-02-11T08:50:03;102512.25;;;1.55;100.00
25560;BME280;13450;49.374;8.584;2023-02-11T08:52:29;102518.16;;;1.60;100.00
25560;BME280;13450;49.374;8.584;2023-02-11T08:54:54;102515.06;;;1.69;100.00
25560;BME280;13450;49.374;8.584;2023-02-11T08:59:55;102497.34;;;1.89;100.00
25560;BME280;13450;49.374;8.584;2023-02-11T09:02:20;102505.59;;;2.01;100.00
25560;BME280;13450;49.374;8.584;2023-02-11T09:04:46;102502.63;;;2.07;100.00
25560;BME280;13450;49.374;8.584;2023-02-11T09:07:11;102502.16;;;2.16;100.00
25560;BME280;13450;49.374;8.584;2023-02-11T09:09:37;102507.69;;;2.29;100.00
25560;BME280;13450;49.374;8.584;2023-02-11T09:17:14;102515.53;;;2.48;100.00
25560;BME280;13450;49.374;8.584;2023-02-11T09:19:39;102513.47;;;2.54;100.00
25560;BME280;13450;49.374;8.584;2023-02-11T09:22:05;102514.69;;;2.64;100.00
25560;BME280;13450;49.374;8.584;2023-02-11T09:27:07;102524.50;;;3.12;100.00
25560;BME280;13450;49.374;8.584;2023-02-11T09:29:37;102529.94;;;3.41;100.00
25560;BME280;13450;49.374;8.584;2023-02-11T09:32:03;102520.34;;;3.55;100.00
25560;BME280;13450;49.374;8.584;2023-02-11T09:34:29;102528.03;;;3.75;100.00
25560;BME280;13450;49.374;8.584;2023-02-11T09:36:54;102529.84;;;3.89;100.00
25560;BME280;13450;49.374;8.584;2023-02-11T09:39:19;102532.28;;;4.09;100.00
25560;BME280;13450;49.374;8.584;2023-02-11T09:47:26;102522.88;;;4.34;100.00
25560;BME280;13450;49.374;8.584;2023-02-11T09:50:00;102524.38;;;4.67;100.00
25560;BME280;13450;49.374;8.584;2023-02-11T09:55:11;102524.94;;;5.01;100.00
25560;BME280;13450;49.374;8.584;2023-02-11T09:57:39;102518.63;;;5.17;100.00
25560;BME280;13450;49.374;8.584;2023-02-11T10:00:29;102515.88;;;5.46;100.00
25560;BME280;13450;49.374;8.584;2023-02-11T10:03:25;102507.00;;;5.47;100.00
25560;BME280;13450;49.374;8.584;2023-02-11T10:06:23;102521.72;;;5.66;100.00
25560;BME280;13450;49.374;8.584;2023-02-11T10:09:00;102515.16;;;5.71;100.00
25560;BME280;13450;49.374;8.584;2023-02-11T10:17:15;102515.34;;;6.61;100.00
25560;BME280;13450;49.374;8.584;2023-02-11T10:22:44;102511.41;;;7.17;100.00
25560;BME280;13450;49.374;8.584;2023-02-11T10:27:56;102500.19;;;7.25;100.00
25560;BME280;13450;49.374;8.584;2023-02-11T10:30:32;102504.78;;;7.71;100.00
25560;BME280;13450;49.374;8.584;2023-02-11T10:35:36;102504.16;;;8.27;95.45
25560;BME280;13450;49.374;8.584;2023-02-11T10:38:02;102505.19;;;8.60;91.97
25560;BME280;13450;49.374;8.584;2023-02-11T10:40:29;102506.50;;;8.88;89.42
25560;BME280;13450;49.374;8.584;2023-02-11T10:42:58;102499.53;;;9.53;88.19
25560;BME280;13450;49.374;8.584;2023-02-11T10:45:50;102491.75;;;10.04;77.53
25560;BME280;13450;49.374;8.584;2023-02-11T10:48:50;102494.00;;;10.51;74.62
25560;BME280;13450;49.374;8.584;2023-02-11T11:02:35;102481.75;;;15.56;49.33
25560;BME280;13450;49.374;8.584;2023-02-11T11:10:39;102493.97;;;13.51;51.59
25560;BME280;13450;49.374;8.584;2023-02-11T11:13:33;102498.00;;;13.01;54.14
25560;BME280;13450;49.374;8.584;2023-02-11T11:21:26;102493.66;;;14.95;51.00
25560;BME280;13450;49.374;8.584;2023-02-11T11:23:59;102488.00;;;15.40;48.33
25560;BME280;13450;49.374;8.584;2023-02-11T11:26:27;102491.19;;;16.02;45.70
25560;BME280;13450;49.374;8.584;2023-02-11T11:34:27;102492.06;;;15.52;45.49
25560;BME280;13450;49.374;8.584;2023-02-11T11:57:26;102501.38;;;20.32;35.22
25560;BME280;13450;49.374;8.584;2023-02-11T12:08:13;102488.91;;;22.15;31.78
25560;BME280;13450;49.374;8.584;2023-02-11T12:13:36;102485.94;;;20.39;33.57
25560;BME280;13450;49.374;8.584;2023-02-11T12:33:03;102473.69;;;18.55;37.22
25560;BME280;13450;49.374;8.584;2023-02-11T12:35:41;102459.94;;;19.88;35.69
25560;BME280;13450;49.374;8.584;2023-02-11T12:41:56;102455.72;;;20.69;34.11
25560;BME280;13450;49.374;8.584;2023-02-11T12:56:56;102474.94;;;19.11;36.60
25560;BME280;13450;49.374;8.584;2023-02-11T13:02:21;102464.53;;;18.26;38.37
25560;BME280;13450;49.374;8.584;2023-02-11T13:04:50;102470.59;;;17.59;39.40
25560;BME280;13450;49.374;8.584;2023-02-11T13:07:24;102462.69;;;17.58;39.27
25560;BME280;13450;49.374;8.584;2023-02-11T13:09:58;102463.28;;;18.95;39.11
25560;BME280;13450;49.374;8.584;2023-02-11T13:12:28;102465.94;;;17.53;39.67
25560;BME280;13450;49.374;8.584;2023-02-11T13:15:13;102454.28;;;17.29;40.12
25560;BME280;13450;49.374;8.584;2023-02-11T13:17:51;102458.63;;;15.95;43.36
25560;BME280;13450;49.374;8.584;2023-02-11T13:20:40;102454.56;;;14.99;46.09
25560;BME280;13450;49.374;8.584;2023-02-11T13:23:24;102454.00;;;14.36;47.39
25560;BME280;13450;49.374;8.584;2023-02-11T13:26:01;102448.72;;;13.10;52.40
25560;BME280;13450;49.374;8.584;2023-02-11T13:28:53;102450.81;;;11.94;58.52
25560;BME280;13450;49.374;8.584;2023-02-11T13:31:24;102451.91;;;12.11;63.25
25560;BME280;13450;49.374;8.584;2023-02-11T13:33:51;102451.22;;;11.89;66.60
25560;BME280;13450;49.374;8.584;2023-02-11T13:36:18;102444.09;;;11.31;71.78
25560;BME280;13450;49.374;8.584;2023-02-11T13:39:02;102443.38;;;11.09;76.14
25560;BME280;13450;49.374;8.584;2023-02-11T13:41:33;102447.56;;;10.92;78.03
25560;BME280;13450;49.374;8.584;2023-02-11T13:44:00;102448.81;;;10.68;80.51
25560;BME280;13450;49.374;8.584;2023-02-11T13:46:28;102451.22;;;10.40;84.61
25560;BME280;13450;49.374;8.584;2023-02-11T13:49:18;102456.03;;;10.15;91.36
25560;BME280;13450;49.374;8.584;2023-02-11T13:51:47;102443.44;;;10.37;89.67
25560;BME280;13450;49.374;8.584;2023-02-11T13:54:26;102438.94;;;10.37;87.77
25560;BME280;13450;49.374;8.584;2023-02-11T13:57:19;102440.88;;;10.25;91.22
25560;BME280;13450;49.374;8.584;2023-02-11T14:00:05;102435.78;;;10.22;88.72
25560;BME280;13450;49.374;8.584;2023-02-11T14:02:33;102442.81;;;10.13;90.24
25560;BME280;13450;49.374;8.584;2023-02-11T14:05:24;102451.69;;;9.92;92.67
25560;BME280;13450;49.374;8.584;2023-02-11T14:16:13;102453.28;;;9.41;100.00
25560;BME280;13450;49.374;8.584;2023-02-11T14:19:11;102435.72;;;9.27;100.00
25560;BME280;13450;49.374;8.584;2023-02-11T14:21:36;102444.31;;;9.09;100.00
25560;BME280;13450;49.374;8.584;2023-02-11T14:26:54;102444.00;;;8.80;100.00
25560;BME280;13450;49.374;8.584;2023-02-11T14:32:04;102445.97;;;8.55;100.00
25560;BME280;13450;49.374;8.584;2023-02-11T14:34:52;102436.53;;;8.62;100.00
25560;BME280;13450;49.374;8.584;2023-02-11T14:37:29;102439.41;;;8.70;100.00
25560;BME280;13450;49.374;8.584;2023-02-11T14:40:26;102438.66;;;8.80;100.00
25560;BME280;13450;49.374;8.584;2023-02-11T14:42:54;102449.22;;;8.81;100.00
25560;BME280;13450;49.374;8.584;2023-02-11T14:45:26;102454.94;;;8.76;100.00
25560;BME280;13450;49.374;8.584;2023-02-11T14:47:59;102456.63;;;8.66;100.00
25560;BME280;13450;49.374;8.584;2023-02-11T14:50:43;102457.25;;;8.47;100.00
25560;BME280;13450;49.374;8.584;2023-02-11T14:53:16;102455.31;;;8.37;100.00
25560;BME280;13450;49.374;8.584;2023-02-11T14:55:52;102457.72;;;8.29;100.00
25560;BME280;13450;49.374;8.584;2023-02-11T14:58:21;102453.84;;;8.22;100.00
25560;BME280;13450;49.374;8.584;2023-02-11T15:03:35;102466.34;;;8.21;100.00
25560;BME280;13450;49.374;8.584;2023-02-11T15:08:30;102477.00;;;8.21;100.00
25560;BME280;13450;49.374;8.584;2023-02-11T15:10:56;102465.25;;;8.24;100.00
25560;BME280;13450;49.374;8.584;2023-02-11T15:13:24;102470.94;;;8.19;100.00
25560;BME280;13450;49.374;8.584;2023-02-11T15:16:06;102456.13;;;8.15;100.00
25560;BME280;13450;49.374;8.584;2023-02-11T15:18:46;102465.34;;;8.11;100.00
25560;BME280;13450;49.374;8.584;2023-02-11T15:21:22;102464.34;;;8.01;100.00
25560;BME280;13450;49.374;8.584;2023-02-11T15:24:05;102465.56;;;7.85;100.00
25560;BME280;13450;49.374;8.584;2023-02-11T15:26:31;102467.94;;;7.77;100.00
25560;BME280;13450;49.374;8.584;2023-02-11T15:28:57;102479.31;;;7.67;100.00
25560;BME280;13450;49.374;8.584;2023-02-11T15:31:26;102472.50;;;7.63;100.00
25560;BME280;13450;49.374;8.584;2023-02-11T15:33:52;102478.06;;;7.60;100.00
25560;BME280;13450;49.374;8.584;2023-02-11T15:36:22;102471.25;;;7.56;100.00
25560;BME280;13450;49.374;8.584;2023-02-11T15:39:15;102469.78;;;7.52;100.00
25560;BME280;13450;49.374;8.584;2023-02-11T15:41:42;102468.31;;;7.48;100.00
25560;BME280;13450;49.374;8.584;2023-02-11T15:44:29;102460.69;;;7.43;100.00
25560;BME280;13450;49.374;8.584;2023-02-11T15:46:55;102460.91;;;7.40;100.00
25560;BME280;13450;49.374;8.584;2023-02-11T15:49:22;102462.09;;;7.36;100.00
25560;BME280;13450;49.374;8.584;2023-02-11T15:51:48;102461.47;;;7.32;100.00
25560;BME280;13450;49.374;8.584;2023-02-11T15:54:23;102460.97;;;7.27;100.00
25560;BME280;13450;49.374;8.584;2023-02-11T15:56:52;102472.81;;;7.23;100.00
25560;BME280;13450;49.374;8.584;2023-02-11T15:59:22;102475.91;;;7.16;100.00
25560;BME280;13450;49.374;8.584;2023-02-11T16:01:50;102470.09;;;7.11;100.00
25560;BME280;13450;49.374;8.584;2023-02-11T16:04:21;102478.19;;;7.10;100.00
25560;BME280;13450;49.374;8.584;2023-02-11T16:06:48;102482.88;;;7.06;100.00
25560;BME280;13450;49.374;8.584;2023-02-11T16:14:28;102481.00;;;6.95;100.00
25560;BME280;13450;49.374;8.584;2023-02-11T16:17:07;102471.53;;;6.91;100.00
25560;BME280;13450;49.374;8.584;2023-02-11T16:19:33;102484.13;;;6.89;100.00
25560;BME280;13450;49.374;8.584;2023-02-11T16:22:05;102479.88;;;6.86;100.00
25560;BME280;13450;49.374;8.584;2023-02-11T16:24:34;102486.25;;;6.84;100.00
25560;BME280;13450;49.374;8.584;2023-02-11T16:27:49;102500.63;;;6.81;100.00
25560;BME280;13450;49.374;8.584;2023-02-11T16:30:25;102497.22;;;6.79;100.00
25560;BME280;13450;49.374;8.584;2023-02-11T16:32:52;102489.25;;;6.79;100.00
25560;BME280;13450;49.374;8.584;2023-02-11T16:35:18;102494.66;;;6.77;100.00
25560;BME280;13450;49.374;8.584;2023-02-11T16:37:44;102497.34;;;6.77;100.00
25560;BME280;13450;49.374;8.584;2023-02-11T16:40:10;102494.88;;;6.74;100.00
25560;BME280;13450;49.374;8.584;2023-02-11T16:42:36;102497.44;;;6.76;100.00
25560;BME280;13450;49.374;8.584;2023-02-11T16:45:02;102505.41;;;6.76;100.00
25560;BME280;13450;49.374;8.584;2023-02-11T16:47:28;102498.41;;;6.75;100.00
25560;BME280;13450;49.374;8.584;2023-02-11T16:49:56;102503.72;;;6.75;100.00
25560;BME280;13450;49.374;8.584;2023-02-11T16:52:23;102493.09;;;6.75;100.00
25560;BME280;13450;49.374;8.584;2023-02-11T16:54:49;102506.38;;;6.75;100.00
25560;BME280;13450;49.374;8.584;2023-02-11T16:57:17;102516.31;;;6.73;100.00
25560;BME280;13450;49.374;8.584;2023-02-11T16:59:43;102516.41;;;6.71;100.00
25560;BME280;13450;49.374;8.584;2023-02-11T17:02:22;102507.56;;;6.71;100.00
25560;BME280;13450;49.374;8.584;2023-02-11T17:04:49;102508.44;;;6.71;100.00
25560;BME280;13450;49.374;8.584;2023-02-11T17:07:16;102511.19;;;6.70;100.00
25560;BME280;13450;49.374;8.584;2023-02-11T17:09:41;102515.75;;;6.67;100.00
25560;BME280;13450;49.374;8.584;2023-02-11T17:12:06;102519.47;;;6.65;100.00
25560;BME280;13450;49.374;8.584;2023-02-11T17:14:31;102518.66;;;6.64;100.00
25560;BME280;13450;49.374;8.584;2023-02-11T17:16:59;102516.19;;;6.61;100.00
25560;BME280;13450;49.374;8.584;2023-02-11T17:19:28;102513.00;;;6.56;100.00
25560;BME280;13450;49.374;8.584;2023-02-11T17:21:53;102519.31;;;6.55;100.00
25560;BME280;13450;49.374;8.584;2023-02-11T17:24:24;102514.19;;;6.52;100.00
25560;BME280;13450;49.374;8.584;2023-02-11T17:26:49;102516.31;;;6.47;100.00
25560;BME280;13450;49.374;8.584;2023-02-11T17:29:18;102510.25;;;6.45;100.00
25560;BME280;13450;49.374;8.584;2023-02-11T17:31:43;102500.78;;;6.40;100.00
25560;BME280;13450;49.374;8.584;2023-02-11T17:34:09;102503.56;;;6.39;100.00
25560;BME280;13450;49.374;8.584;2023-02-11T17:36:34;102515.28;;;6.36;100.00
25560;BME280;13450;49.374;8.584;2023-02-11T17:39:02;102511.75;;;6.36;100.00
25560;BME280;13450;49.374;8.584;2023-02-11T17:41:30;102514.41;;;6.36;100.00
25560;BME280;13450;49.374;8.584;2023-02-11T17:43:59;102516.97;;;6.37;100.00
25560;BME280;13450;49.374;8.584;2023-02-11T17:46:27;102513.53;;;6.35;100.00
25560;BME280;13450;49.374;8.584;2023-02-11T17:48:57;102517.94;;;6.36;100.00
25560;BME280;13450;49.374;8.584;2023-02-11T17:51:34;102518.75;;;6.37;100.00
25560;BME280;13450;49.374;8.584;2023-02-11T17:54:09;102533.88;;;6.36;100.00
25560;BME280;13450;49.374;8.584;2023-02-11T17:56:37;102527.59;;;6.37;100.00
25560;BME280;13450;49.374;8.584;2023-02-11T17:59:10;102531.22;;;6.36;100.00
25560;BME280;13450;49.374;8.584;2023-02-11T18:01:48;102525.91;;;6.36;100.00
25560;BME280;13450;49.374;8.584;2023-02-11T18:04:17;102529.50;;;6.35;100.00
25560;BME280;13450;49.374;8.584;2023-02-11T18:06:44;102531.44;;;6.33;100.00
25560;BME280;13450;49.374;8.584;2023-02-11T18:09:14;102538.53;;;6.33;100.00
25560;BME280;13450;49.374;8.584;2023-02-11T18:11:59;102544.84;;;6.32;100.00
25560;BME280;13450;49.374;8.584;2023-02-11T18:14:25;102543.97;;;6.31;100.00
25560;BME280;13450;49.374;8.584;2023-02-11T18:16:52;102537.16;;;6.27;100.00
25560;BME280;13450;49.374;8.584;2023-02-11T18:33:14;102546.72;;;6.17;100.00